Time;durP1;ratioP1;P1;durP2;ratioP2;P2;SDS_P1;SDS_P2;PMS_P1;PMS_P2;Temp;Humidity;BMP_temperature;BMP_pressure;BME280_temperature;BME280_humidity;BME280_pressure;Samples;Min_cycle;Max_cycle;Signal;HPM_P1;HPM_P2
2023/12/10 00:00:58;;;;;;;;;4.00;1.50;;;;;-146.67;50.95;74751.47;5120224;27;40233;-71
2023/12/10 00:03:24;;;;;;;;;4.00;2.50;;;;;-146.67;49.99;74743.47;5124065;27;37783;-71
2023/12/10 00:05:49;;;;;;;;;5.50;4.00;;;;;-146.67;50.48;74735.50;5124455;27;38334;-71
2023/12/10 00:08:15;;;;;;;;;7.25;2.50;;;;;-146.67;51.30;74727.50;5124577;27;37891;-71
2023/12/10 00:10:40;;;;;;;;;3.00;1.25;;;;;-146.67;51.10;74751.47;5123302;27;38350;-71
2023/12/10 00:13:06;;;;;;;;;2.00;1.00;;;;;-146.67;51.18;74763.44;5124023;27;38301;-71
2023/12/10 00:15:31;;;;;;;;;3.00;1.75;;;;;-146.67;51.28;74779.41;5124196;27;38567;-71
2023/12/10 00:17:57;;;;;;;;;2.25;1.25;;;;;-146.67;50.73;74795.41;5124259;27;37962;-71
2023/12/10 00:20:23;;;;;;;;;3.50;1.00;;;;;-146.67;50.54;74797.38;5123201;27;39324;-71
2023/12/10 00:22:49;;;;;;;;;8.75;2.25;;;;;-146.67;51.08;74799.38;5123892;27;37808;-71
2023/12/10 00:25:14;;;;;;;;;3.50;1.00;;;;;-146.67;51.16;74799.38;5121636;27;37836;-71
2023/12/10 00:27:40;;;;;;;;;7.50;1.00;;;;;-146.67;52.13;74803.38;5123673;27;38573;-71
2023/12/10 00:30:06;;;;;;;;;4.00;1.00;;;;;-146.67;51.35;74807.38;5127015;27;38203;-71
2023/12/10 00:32:31;;;;;;;;;7.00;2.00;;;;;-146.67;51.88;74807.38;5123804;27;38282;-71
2023/12/10 00:34:57;;;;;;;;;3.25;1.00;;;;;-146.67;52.30;74805.38;5124005;27;38039;-71
2023/12/10 00:37:22;;;;;;;;;2.75;1.75;;;;;-146.67;51.88;74771.44;5124312;27;38717;-71
2023/12/10 00:39:47;;;;;;;;;3.00;2.75;;;;;-146.67;51.52;74789.41;5123110;27;39167;-71
2023/12/10 00:42:13;;;;;;;;;7.75;3.00;;;;;-146.67;50.89;74795.41;5123809;27;38186;-71
2023/12/10 00:44:38;;;;;;;;;3.00;1.50;;;;;-146.67;50.83;74811.38;5123599;27;38365;-71
2023/12/10 00:47:04;;;;;;;;;2.75;1.00;;;;;-146.67;51.27;74827.34;5123592;27;38435;-71
2023/12/10 00:49:29;;;;;;;;;5.00;2.25;;;;;-146.67;51.69;74819.34;5122838;27;38339;-71
2023/12/10 00:51:55;;;;;;;;;2.50;1.25;;;;;-146.67;51.67;74813.38;5123519;27;37720;-71
2023/12/10 00:54:20;;;;;;;;;3.75;2.00;;;;;-146.67;50.99;74823.34;5122151;27;37867;-71
2023/12/10 00:56:45;;;;;;;;;3.00;3.00;;;;;-146.67;51.59;74823.34;5123637;27;37922;-71
2023/12/10 00:59:11;;;;;;;;;2.50;1.50;;;;;-146.67;51.70;74831.34;5109116;27;62046;-71
2023/12/10 01:01:36;;;;;;;;;5.25;1.00;;;;;-146.67;52.15;74831.34;5089318;27;61869;-71
2023/12/10 01:04:02;;;;;;;;;7.50;2.00;;;;;-146.67;52.64;74845.31;5103846;27;61877;-71
2023/12/10 01:06:27;;;;;;;;;2.00;2.00;;;;;-146.67;51.99;74841.31;5104174;27;62065;-71
2023/12/10 01:08:52;;;;;;;;;3.00;3.00;;;;;-146.67;51.43;74847.31;5101845;27;63144;-71
2023/12/10 01:11:18;;;;;;;;;8.25;3.00;;;;;-146.67;51.65;74851.31;5084394;27;62540;-71
2023/12/10 01:13:43;;;;;;;;;1.00;1.00;;;;;-146.67;51.44;74849.31;5096563;27;61764;-71
2023/12/10 01:16:12;;;;;;;;;3.00;1.00;;;;;-146.67;51.89;74853.28;5105223;27;61893;-71
2023/12/10 01:18:38;;;;;;;;;7.00;2.00;;;;;-146.67;50.96;74887.25;5104428;27;62678;-71
2023/12/10 01:21:09;;;;;;;;;1.25;1.00;;;;;-146.67;52.09;74881.25;5103262;27;61821;-71
2023/12/10 01:23:36;;;;;;;;;1.50;1.00;;;;;-146.67;51.93;74883.25;5112360;27;61934;-71
2023/12/10 01:26:01;;;;;;;;;5.00;2.75;;;;;-146.67;52.04;74887.25;5082865;28;62076;-71
2023/12/10 01:28:26;;;;;;;;;1.00;1.00;;;;;-146.67;51.66;74891.22;5087490;27;62034;-71
2023/12/10 01:30:52;;;;;;;;;2.50;2.00;;;;;-146.67;52.07;74883.25;5103637;27;61789;-71
2023/12/10 01:33:17;;;;;;;;;1.00;0.75;;;;;-146.67;51.19;74889.22;5104959;27;62248;-71
2023/12/10 01:35:43;;;;;;;;;4.00;1.75;;;;;-146.67;52.28;74889.22;5103812;27;61989;-71
2023/12/10 01:38:08;;;;;;;;;4.00;3.00;;;;;-146.67;51.47;74881.25;5103397;27;61922;-71
2023/12/10 01:40:35;;;;;;;;;5.00;1.00;;;;;-146.67;52.04;74885.25;5104741;27;61848;-71
2023/12/10 01:43:06;;;;;;;;;4.50;1.00;;;;;-146.67;51.35;74929.16;5104746;27;61860;-71
2023/12/10 01:45:31;;;;;;;;;7.50;2.00;;;;;-146.67;52.35;74911.19;5114012;27;62064;-71
2023/12/10 01:47:58;;;;;;;;;2.00;2.00;;;;;-146.67;51.34;74917.19;5104109;27;62050;-72
2023/12/10 01:50:23;;;;;;;;;9.00;1.00;;;;;-146.67;51.84;74933.16;5104217;27;61947;-71
2023/12/10 01:52:49;;;;;;;;;6.75;2.75;;;;;-146.67;51.46;74929.16;5104439;27;62040;-71
2023/12/10 01:55:15;;;;;;;;;5.25;2.00;;;;;-146.67;51.90;74925.19;5099475;27;61972;-71
2023/12/10 01:57:41;;;;;;;;;3.75;1.50;;;;;-146.67;52.38;74941.16;5083352;27;61926;-71
2023/12/10 02:00:07;;;;;;;;;1.00;1.00;;;;;-146.67;51.78;74949.13;5083710;27;62004;-71
2023/12/10 02:02:35;;;;;;;;;1.00;1.00;;;;;-146.67;52.15;74939.16;5084191;27;61873;-71
2023/12/10 02:05:07;;;;;;;;;6.25;1.75;;;;;-146.67;52.71;74931.16;5084202;27;61822;-71
2023/12/10 02:07:34;;;;;;;;;1.75;1.75;;;;;-146.67;52.47;74925.19;5107032;27;63020;-71
2023/12/10 02:10:00;;;;;;;;;5.75;2.00;;;;;-146.67;52.03;74915.19;5124561;27;61931;-71
2023/12/10 02:12:27;;;;;;;;;5.25;2.00;;;;;-146.67;52.18;74921.19;5112676;27;61724;-71
2023/12/10 02:14:53;;;;;;;;;4.00;1.00;;;;;-146.67;51.57;74923.19;5102842;27;61936;-71
2023/12/10 02:17:19;;;;;;;;;2.50;2.00;;;;;-146.67;52.44;74953.13;5103385;27;63284;-71
2023/12/10 02:19:44;;;;;;;;;1.00;1.00;;;;;-146.67;52.29;74963.13;5103181;27;61805;-71
2023/12/10 02:22:14;;;;;;;;;7.25;0.50;;;;;-146.67;51.53;74975.09;5104001;27;62136;-71
2023/12/10 02:24:49;;;;;;;;;2.25;1.00;;;;;-146.67;53.08;74969.09;5101822;27;61754;-71
2023/12/10 02:27:15;;;;;;;;;3.00;1.00;;;;;-146.67;52.11;74971.09;5102727;27;61752;-71
2023/12/10 02:29:41;;;;;;;;;5.75;2.25;;;;;-146.67;52.32;74961.13;5103766;27;62060;-71
2023/12/10 02:32:06;;;;;;;;;0.50;0.50;;;;;-146.67;52.32;74963.13;5102234;27;61968;-71
2023/12/10 02:34:32;;;;;;;;;4.00;0.00;;;;;-146.67;51.99;74967.09;5115132;27;62206;-71
2023/12/10 02:36:57;;;;;;;;;2.00;1.00;;;;;-146.67;52.60;74967.09;5101408;27;63737;-71
2023/12/10 02:39:22;;;;;;;;;2.50;1.75;;;;;-146.67;51.66;74977.09;5102195;27;61766;-71
2023/12/10 02:41:48;;;;;;;;;4.00;1.00;;;;;-146.67;51.99;74985.06;5103643;27;61861;-71
2023/12/10 02:44:13;;;;;;;;;2.00;2.00;;;;;-146.67;52.20;74987.06;5103598;27;61807;-71
2023/12/10 02:46:43;;;;;;;;;7.00;3.75;;;;;-146.67;52.14;74987.06;5092485;27;62874;-71
2023/12/10 02:49:09;;;;;;;;;1.00;1.00;;;;;-146.67;52.48;74983.06;5102818;27;62632;-71
2023/12/10 02:51:34;;;;;;;;;3.75;1.00;;;;;-146.67;52.35;74977.09;5101681;27;62202;-71
2023/12/10 02:54:00;;;;;;;;;1.00;1.00;;;;;-146.67;52.49;74977.09;5103880;27;61704;-71
2023/12/10 02:56:25;;;;;;;;;8.00;2.50;;;;;-146.67;52.13;74985.06;5101328;27;63620;-71
2023/12/10 02:58:50;;;;;;;;;3.25;1.75;;;;;-146.67;52.54;74973.09;5103401;27;61769;-71
2023/12/10 03:01:16;;;;;;;;;6.00;2.50;;;;;-146.67;52.48;74979.09;5102217;27;62107;-71
2023/12/10 03:03:41;;;;;;;;;2.50;0.75;;;;;-146.67;51.88;74993.06;5102933;27;61729;-71
2023/12/10 03:06:07;;;;;;;;;4.50;1.00;;;;;-146.67;51.83;75003.03;5102500;27;61751;-71
2023/12/10 03:08:32;;;;;;;;;3.00;1.75;;;;;-146.67;51.12;75013.03;5101792;27;61773;-71
2023/12/10 03:10:58;;;;;;;;;3.25;1.00;;;;;-146.67;51.88;75007.03;5103477;27;62331;-71
2023/12/10 03:13:23;;;;;;;;;10.25;2.00;;;;;-146.67;51.25;75019.03;5103392;27;61830;-71
2023/12/10 03:15:49;;;;;;;;;8.25;2.00;;;;;-146.67;51.99;75003.03;5102295;27;62031;-69
2023/12/10 03:18:14;;;;;;;;;4.50;1.25;;;;;-146.67;51.41;75001.06;5102958;27;61842;-69
2023/12/10 03:20:39;;;;;;;;;3.00;1.25;;;;;-146.67;51.68;75011.03;5100955;27;62445;-69
2023/12/10 03:23:05;;;;;;;;;2.00;1.00;;;;;-146.67;52.32;74983.06;5101754;27;61907;-69
2023/12/10 03:25:30;;;;;;;;;10.25;1.50;;;;;-146.67;52.39;75005.03;5102241;27;62024;-69
2023/12/10 03:27:55;;;;;;;;;2.00;1.00;;;;;-146.67;51.93;75005.03;5102767;27;61855;-69
2023/12/10 03:30:21;;;;;;;;;5.75;2.00;;;;;-146.67;51.94;75003.03;5103163;27;61864;-69
2023/12/10 03:32:46;;;;;;;;;3.50;2.00;;;;;-146.67;52.51;75013.03;5102631;27;61774;-69
2023/12/10 03:35:12;;;;;;;;;3.00;1.50;;;;;-146.67;52.93;75005.03;5101634;27;62912;-69
2023/12/10 03:37:37;;;;;;;;;7.25;3.00;;;;;-146.67;52.46;75007.03;5102724;27;61932;-69
2023/12/10 03:40:03;;;;;;;;;3.00;2.00;;;;;-146.67;52.09;75007.03;5102901;27;61959;-69
2023/12/10 03:42:29;;;;;;;;;3.50;2.00;;;;;-146.67;51.93;75027.00;5103146;27;62194;-69
2023/12/10 03:44:55;;;;;;;;;2.25;1.00;;;;;-146.67;52.29;75021.00;5097101;27;63432;-69
2023/12/10 03:47:21;;;;;;;;;8.00;2.25;;;;;-146.67;52.58;75040.97;5097900;27;61883;-69
2023/12/10 03:49:46;;;;;;;;;2.00;1.00;;;;;-146.67;53.29;75044.97;5102199;27;62351;-69
2023/12/10 03:52:13;;;;;;;;;4.00;2.00;;;;;-146.67;53.22;75035.00;5103175;27;61820;-69
2023/12/10 03:54:38;;;;;;;;;2.75;1.00;;;;;-146.67;53.58;75048.97;5102294;27;61869;-69
2023/12/10 03:57:04;;;;;;;;;1.75;1.00;;;;;-146.67;52.90;75044.97;5101344;27;62165;-69
2023/12/10 03:59:30;;;;;;;;;7.00;2.00;;;;;-146.67;53.48;75042.97;5102878;27;61833;-69
2023/12/10 04:01:56;;;;;;;;;3.25;2.75;;;;;-146.67;53.56;75033.00;5102201;27;61786;-69
2023/12/10 04:04:21;;;;;;;;;1.25;1.00;;;;;-146.67;53.36;75033.00;5102244;27;61845;-69
2023/12/10 04:06:47;;;;;;;;;2.25;2.25;;;;;-146.67;53.65;75037.00;5102653;27;61957;-69
2023/12/10 04:09:13;;;;;;;;;7.50;2.75;;;;;-146.67;53.88;75037.00;5101192;27;61884;-69
2023/12/10 04:11:38;;;;;;;;;14.25;1.75;;;;;-146.67;54.18;75044.97;5102638;27;61691;-69
2023/12/10 04:14:10;;;;;;;;;2.50;1.50;;;;;-146.67;52.94;75076.94;5100238;27;63872;-69
2023/12/10 04:16:36;;;;;;;;;4.00;2.50;;;;;-146.67;53.10;75062.94;5102214;27;61884;-69
2023/12/10 04:19:02;;;;;;;;;0.75;0.25;;;;;-146.67;54.14;75052.97;5101619;27;61767;-69
2023/12/10 04:21:27;;;;;;;;;5.50;2.50;;;;;-146.67;54.05;75054.97;5101302;27;62093;-69
2023/12/10 04:23:52;;;;;;;;;1.75;1.00;;;;;-146.67;53.90;75056.97;5101374;27;63174;-69
2023/12/10 04:26:18;;;;;;;;;11.75;0.75;;;;;-146.67;53.47;75052.97;5102521;27;61805;-69
2023/12/10 04:28:44;;;;;;;;;2.25;1.75;;;;;-146.67;54.25;75056.97;5102430;27;62004;-69
2023/12/10 04:31:09;;;;;;;;;2.25;1.00;;;;;-146.67;53.30;75066.94;5102016;27;62172;-69
2023/12/10 04:33:35;;;;;;;;;3.00;1.50;;;;;-146.67;53.15;75084.91;5101546;27;62745;-69
2023/12/10 04:36:01;;;;;;;;;1.00;1.00;;;;;-146.67;54.28;75092.91;5100378;27;61800;-69
2023/12/10 04:38:28;;;;;;;;;5.50;1.00;;;;;-146.67;53.37;75096.91;5102408;27;61937;-69
2023/12/10 04:40:54;;;;;;;;;5.50;2.00;;;;;-146.67;53.87;75082.91;5101025;27;61774;-69
2023/12/10 04:43:19;;;;;;;;;5.25;0.25;;;;;-146.67;53.62;75086.91;5101414;27;61943;-69
2023/12/10 04:45:45;;;;;;;;;2.00;1.50;;;;;-146.67;53.40;75090.91;5099111;27;61931;-69
2023/12/10 04:48:12;;;;;;;;;4.50;2.00;;;;;-146.67;53.78;75068.94;5082517;28;61818;-69
2023/12/10 04:50:38;;;;;;;;;8.00;2.00;;;;;-146.67;53.26;75074.94;5083776;28;61809;-69
2023/12/10 04:53:03;;;;;;;;;3.50;2.25;;;;;-146.67;53.66;75070.94;5084293;27;62906;-69
2023/12/10 04:55:29;;;;;;;;;2.25;1.50;;;;;-146.67;53.31;75088.91;5085331;27;61770;-69
2023/12/10 04:57:54;;;;;;;;;7.50;1.25;;;;;-146.67;53.05;75086.91;5094765;27;61801;-69
2023/12/10 05:00:19;;;;;;;;;7.50;3.00;;;;;-146.67;53.51;75082.91;5118179;27;62150;-69
2023/12/10 05:02:45;;;;;;;;;3.25;2.25;;;;;-146.67;53.37;75076.94;5125691;27;61800;-69
2023/12/10 05:05:10;;;;;;;;;3.75;1.00;;;;;-146.67;53.99;75070.94;5117104;27;61726;-69
2023/12/10 05:07:36;;;;;;;;;3.25;2.00;;;;;-146.67;53.50;75066.94;5105791;27;62417;-69
2023/12/10 05:10:03;;;;;;;;;3.25;1.25;;;;;-146.67;53.09;75062.94;5105735;27;61934;-69
2023/12/10 05:12:28;;;;;;;;;10.25;3.25;;;;;-146.67;53.63;75050.97;5104691;27;62404;-69
2023/12/10 05:14:53;;;;;;;;;2.75;0.75;;;;;-146.67;53.53;75066.94;5103986;27;61784;-69
2023/12/10 05:17:19;;;;;;;;;6.25;2.25;;;;;-146.67;52.85;75076.94;5101714;27;62135;-69
2023/12/10 05:19:44;;;;;;;;;2.25;1.25;;;;;-146.67;53.70;75090.91;5105087;27;62107;-71
2023/12/10 05:22:10;;;;;;;;;7.00;2.00;;;;;-146.67;54.53;75084.91;5103001;27;63558;-71
2023/12/10 05:24:35;;;;;;;;;6.75;2.00;;;;;-146.67;53.88;75076.94;5105293;27;62404;-71
2023/12/10 05:27:00;;;;;;;;;3.25;2.25;;;;;-146.67;53.79;75068.94;5105400;27;61839;-71
2023/12/10 05:29:26;;;;;;;;;6.25;1.00;;;;;-146.67;54.65;75082.91;5104363;27;62480;-71
2023/12/10 05:31:51;;;;;;;;;6.00;4.00;;;;;-146.67;53.67;75098.88;5104511;27;62473;-71
2023/12/10 05:34:16;;;;;;;;;3.50;1.75;;;;;-146.67;53.65;75096.91;5123942;27;62395;-71
2023/12/10 05:36:42;;;;;;;;;1.25;1.25;;;;;-146.67;53.72;75098.88;5125733;27;61851;-71
2023/12/10 05:39:08;;;;;;;;;8.25;2.25;;;;;-146.67;53.71;75094.91;5125935;27;61880;-71
2023/12/10 05:41:33;;;;;;;;;7.25;2.50;;;;;-146.67;53.33;75110.88;5124749;27;62542;-71
2023/12/10 05:43:59;;;;;;;;;1.00;1.00;;;;;-146.67;53.44;75110.88;5125264;27;62200;-71
2023/12/10 05:46:25;;;;;;;;;4.25;2.00;;;;;-146.67;53.84;75114.88;5107485;27;61880;-71
2023/12/10 05:48:50;;;;;;;;;3.75;1.00;;;;;-146.67;53.43;75124.84;5103336;27;62130;-71
2023/12/10 05:51:15;;;;;;;;;2.50;2.50;;;;;-146.67;54.07;75124.84;5102853;27;63579;-71
2023/12/10 05:53:41;;;;;;;;;5.00;1.50;;;;;-146.67;53.39;75134.81;5104906;27;62066;-71
2023/12/10 05:56:07;;;;;;;;;7.00;1.00;;;;;-146.67;53.70;75132.84;5103602;27;61821;-71
2023/12/10 05:58:33;;;;;;;;;3.25;3.00;;;;;-146.67;53.07;75136.81;5102038;27;62389;-71
2023/12/10 06:00:58;;;;;;;;;3.50;1.00;;;;;-146.67;54.58;75122.84;5104381;27;61657;-71
2023/12/10 06:03:24;;;;;;;;;3.00;1.25;;;;;-146.67;53.36;75132.84;5104408;27;61715;-71
2023/12/10 06:05:50;;;;;;;;;3.25;1.00;;;;;-146.67;52.90;75132.84;5104876;27;62071;-71
2023/12/10 06:08:16;;;;;;;;;5.25;2.00;;;;;-146.67;53.66;75126.84;5105024;27;61798;-71
2023/12/10 06:10:41;;;;;;;;;2.00;2.00;;;;;-146.67;53.22;75118.84;5103872;27;61790;-71
2023/12/10 06:13:07;;;;;;;;;1.50;1.00;;;;;-146.67;53.15;75120.84;5104073;27;61933;-71
2023/12/10 06:15:32;;;;;;;;;5.25;3.00;;;;;-146.67;53.98;75130.84;5102879;27;61849;-71
2023/12/10 06:17:57;;;;;;;;;4.00;0.75;;;;;-146.67;54.22;75134.81;5104677;27;61972;-71
2023/12/10 06:20:24;;;;;;;;;4.25;2.00;;;;;-146.67;53.19;75124.84;5101712;27;63876;-71
2023/12/10 06:22:49;;;;;;;;;4.75;3.25;;;;;-146.67;52.54;75142.81;5104521;27;62128;-71
2023/12/10 06:25:14;;;;;;;;;7.50;1.75;;;;;-146.67;53.24;75118.84;5103224;27;61950;-71
2023/12/10 06:27:40;;;;;;;;;3.50;1.50;;;;;-146.67;53.18;75106.88;5103933;27;61718;-71
2023/12/10 06:30:08;;;;;;;;;8.50;3.50;;;;;-146.67;52.86;75108.88;5103474;27;62002;-71
2023/12/10 06:32:34;;;;;;;;;3.00;3.00;;;;;-146.67;52.92;75110.88;5102593;27;61788;-71
2023/12/10 06:34:59;;;;;;;;;2.75;1.25;;;;;-146.67;52.32;75118.84;5104402;27;61866;-71
2023/12/10 06:37:25;;;;;;;;;4.75;2.75;;;;;-146.67;53.11;75102.88;5104469;27;61880;-71
2023/12/10 06:39:50;;;;;;;;;5.00;4.00;;;;;-146.67;52.83;75110.88;5103409;27;63217;-71
2023/12/10 06:42:15;;;;;;;;;2.00;2.00;;;;;-146.67;53.79;75112.88;5103532;27;62156;-71
2023/12/10 06:44:41;;;;;;;;;5.75;1.00;;;;;-146.67;53.09;75090.91;5099344;27;61869;-71
2023/12/10 06:47:07;;;;;;;;;2.25;2.25;;;;;-146.67;52.88;75092.91;5100409;27;61845;-71
2023/12/10 06:49:32;;;;;;;;;2.50;1.00;;;;;-146.67;53.08;75096.91;5102745;27;62646;-71
2023/12/10 06:51:58;;;;;;;;;6.25;2.00;;;;;-146.67;52.97;75094.91;5102536;27;61908;-71
2023/12/10 06:54:23;;;;;;;;;2.25;1.25;;;;;-146.67;52.61;75104.88;5088879;27;61869;-71
2023/12/10 06:56:49;;;;;;;;;1.00;0.00;;;;;-146.67;52.62;75104.88;5095702;27;62044;-71
2023/12/10 06:59:14;;;;;;;;;1.50;1.25;;;;;-146.67;52.68;75102.88;5098090;27;63574;-71
2023/12/10 07:01:40;;;;;;;;;4.00;1.00;;;;;-146.67;52.57;75104.88;5083082;28;61759;-71
2023/12/10 07:04:07;;;;;;;;;5.25;3.50;;;;;-146.67;52.41;75104.88;5083195;28;62039;-71
2023/12/10 07:06:33;;;;;;;;;3.25;3.00;;;;;-146.67;53.16;75126.84;5083472;27;61849;-71
2023/12/10 07:08:58;;;;;;;;;6.00;2.00;;;;;-146.67;52.85;75138.81;5114990;27;63897;-71
2023/12/10 07:11:23;;;;;;;;;3.75;0.75;;;;;-146.67;53.23;75132.84;5087307;27;61883;-71
2023/12/10 07:13:49;;;;;;;;;4.25;3.00;;;;;-146.67;53.11;75130.84;5103376;27;61731;-71
2023/12/10 07:16:15;;;;;;;;;1.50;1.00;;;;;-146.67;53.12;75112.88;5103735;27;61822;-71
2023/12/10 07:18:41;;;;;;;;;5.00;3.00;;;;;-146.67;53.53;75120.84;5102823;27;61865;-71
2023/12/10 07:21:07;;;;;;;;;6.25;1.75;;;;;-146.67;53.12;75128.84;5101519;27;61988;-71
2023/12/10 07:23:35;;;;;;;;;1.25;1.25;;;;;-146.67;53.73;75114.88;5103543;27;61827;-71
2023/12/10 07:26:00;;;;;;;;;7.00;2.00;;;;;-146.67;52.85;75122.84;5103084;27;62028;-71
2023/12/10 07:28:25;;;;;;;;;2.75;1.00;;;;;-146.67;52.82;75138.81;5102519;27;61741;-71
2023/12/10 07:30:51;;;;;;;;;4.00;3.75;;;;;-146.67;53.87;75132.84;5101867;27;61722;-71
2023/12/10 07:33:16;;;;;;;;;4.50;1.75;;;;;-146.67;53.80;75136.81;5101920;27;61917;-71
2023/12/10 07:35:42;;;;;;;;;4.75;1.00;;;;;-146.67;53.27;75134.81;5103698;27;61953;-71
2023/12/10 07:38:07;;;;;;;;;3.75;2.00;;;;;-146.67;53.11;75142.81;5100168;27;64100;-71
2023/12/10 07:40:33;;;;;;;;;1.75;1.25;;;;;-146.67;54.19;75136.81;5108892;27;61750;-72
2023/12/10 07:42:58;;;;;;;;;3.00;2.50;;;;;-146.67;52.94;75134.81;5101141;27;62350;-72
2023/12/10 07:45:23;;;;;;;;;2.00;1.75;;;;;-146.67;53.60;75136.81;5100344;27;61857;-72
2023/12/10 07:48:03;;;;;;;;;2.25;2.00;;;;;-146.67;53.93;75136.81;5101456;27;61700;-71
2023/12/10 07:50:28;;;;;;;;;5.75;2.00;;;;;-146.67;53.45;75122.84;5106245;27;61999;-72
2023/12/10 07:52:54;;;;;;;;;3.75;2.00;;;;;-146.67;53.46;75108.88;5108216;27;62705;-71
2023/12/10 07:55:19;;;;;;;;;7.50;4.00;;;;;-146.67;53.58;75102.88;5101639;27;61943;-72
2023/12/10 07:57:44;;;;;;;;;11.50;2.50;;;;;-146.67;53.16;75110.88;5110262;27;61967;-72
2023/12/10 08:00:12;;;;;;;;;9.50;2.00;;;;;-146.67;53.09;75088.91;5110160;27;61773;-72
2023/12/10 08:02:37;;;;;;;;;7.00;3.00;;;;;-146.67;52.76;75082.91;5104826;27;61741;-71
2023/12/10 08:05:03;;;;;;;;;6.00;1.75;;;;;-146.67;53.68;75076.94;5102474;27;61754;-72
2023/12/10 08:07:29;;;;;;;;;6.75;3.00;;;;;-146.67;52.76;75066.94;5100116;27;63670;-72
2023/12/10 08:09:55;;;;;;;;;3.75;2.00;;;;;-146.67;52.58;75062.94;5108906;27;61870;-71
2023/12/10 08:12:21;;;;;;;;;7.50;2.50;;;;;-146.67;53.07;75056.97;5101677;27;62308;-71
2023/12/10 08:14:46;;;;;;;;;6.75;5.00;;;;;-146.67;52.65;75076.94;5099526;27;62264;-71
2023/12/10 08:17:11;;;;;;;;;9.25;2.00;;;;;-146.67;52.29;75076.94;5101253;27;61800;-72
2023/12/10 08:19:37;;;;;;;;;3.00;2.00;;;;;-146.67;53.12;75086.91;5102047;27;61866;-71
2023/12/10 08:22:03;;;;;;;;;5.50;2.00;;;;;-146.67;53.01;75080.91;5101801;27;61899;-72
2023/12/10 08:24:29;;;;;;;;;3.00;3.00;;;;;-146.67;53.16;75074.94;5105759;27;61866;-72
2023/12/10 08:26:54;;;;;;;;;1.50;1.50;;;;;-146.67;53.05;75084.91;5104114;27;64864;-72
2023/12/10 08:29:20;;;;;;;;;9.50;2.50;;;;;-146.67;53.28;75090.91;5105618;27;61825;-72
2023/12/10 08:31:45;;;;;;;;;7.25;4.25;;;;;-146.67;53.23;75086.91;5105530;27;62326;-71
2023/12/10 08:34:11;;;;;;;;;9.50;4.50;;;;;-146.67;53.26;75086.91;5105763;27;61928;-72
2023/12/10 08:36:37;;;;;;;;;5.50;2.25;;;;;-146.67;53.23;75082.91;5105025;27;62929;-72
2023/12/10 08:39:03;;;;;;;;;2.00;2.00;;;;;-146.67;52.88;75078.91;5106659;27;62047;-71
2023/12/10 08:41:31;;;;;;;;;3.75;2.75;;;;;-146.67;53.48;75066.94;5115153;27;62058;-71
2023/12/10 08:43:56;;;;;;;;;8.50;3.50;;;;;-146.67;52.90;75066.94;5114915;27;62064;-71
2023/12/10 08:46:21;;;;;;;;;4.00;4.00;;;;;-146.67;52.63;75040.97;5108031;27;61927;-72
2023/12/10 08:48:47;;;;;;;;;3.25;1.25;;;;;-146.67;52.57;75039.00;5102834;27;61919;-72
2023/12/10 08:51:12;;;;;;;;;3.75;1.00;;;;;-146.67;53.04;75031.00;5104328;27;62465;-72
2023/12/10 08:53:37;;;;;;;;;3.75;3.00;;;;;-146.67;51.92;75013.03;5111638;27;61964;-72
2023/12/10 08:56:03;;;;;;;;;0.00;0.00;;;;;-146.67;51.26;75029.00;5104812;27;63013;-72
2023/12/10 08:58:30;;;;;;;;;1.00;1.00;;;;;-146.67;52.46;75001.06;5104458;27;61930;-72
2023/12/10 09:00:55;;;;;;;;;13.75;3.00;;;;;-146.67;51.37;75001.06;5106006;27;63114;-71
2023/12/10 09:03:20;;;;;;;;;13.50;4.00;;;;;-146.67;52.22;74979.09;5114223;27;61853;-72
2023/12/10 09:05:46;;;;;;;;;5.75;2.25;;;;;-146.67;51.72;74985.06;5104159;27;63212;-72
2023/12/10 09:08:11;;;;;;;;;4.00;2.75;;;;;-146.67;51.51;74985.06;5103431;27;61995;-70
2023/12/10 09:10:37;;;;;;;;;3.00;1.00;;;;;-146.67;51.61;74975.09;5104570;27;62433;-72
2023/12/10 09:13:09;;;;;;;;;7.25;0.25;;;;;-146.67;52.35;74987.06;5102747;27;61778;-74
2023/12/10 09:15:37;;;;;;;;;3.00;1.00;;;;;-146.67;50.82;74975.09;5083652;28;62760;-75
2023/12/10 09:18:02;;;;;;;;;6.00;1.00;;;;;-146.67;51.00;74971.09;5084863;27;61669;-70
2023/12/10 09:20:28;;;;;;;;;6.75;1.00;;;;;-146.67;51.25;74965.09;5092140;27;61835;-70
2023/12/10 09:22:53;;;;;;;;;6.50;1.75;;;;;-146.67;51.51;74963.13;5083544;28;61874;-70
2023/12/10 09:25:19;;;;;;;;;1.75;1.00;;;;;-146.67;51.35;74937.16;5097935;27;62863;-74
2023/12/10 09:27:44;;;;;;;;;3.00;1.50;;;;;-146.67;51.54;74911.19;5109225;27;61910;-75
2023/12/10 09:30:10;;;;;;;;;6.25;3.00;;;;;-146.67;52.00;74911.19;5101191;27;61940;-75
2023/12/10 09:32:36;;;;;;;;;1.50;1.50;;;;;-146.67;51.49;74901.22;5101199;27;62260;-76
2023/12/10 09:35:03;;;;;;;;;4.00;2.00;;;;;-146.67;51.60;74901.22;5104848;27;62037;-78
2023/12/10 09:37:29;;;;;;;;;2.00;2.00;;;;;-146.67;51.51;74885.25;5103239;27;61879;-76
2023/12/10 09:39:54;;;;;;;;;8.25;4.00;;;;;-146.67;51.71;74871.25;5105875;27;61983;-76
2023/12/10 09:42:20;;;;;;;;;4.50;2.00;;;;;-146.67;52.01;74849.31;5106592;27;61884;-75
2023/12/10 09:44:45;;;;;;;;;5.25;1.00;;;;;-146.67;50.87;74847.31;5101137;27;62787;-76
2023/12/10 09:47:11;;;;;;;;;4.00;2.00;;;;;-146.67;51.09;74861.28;5108969;27;61942;-74
2023/12/10 09:49:38;;;;;;;;;6.50;2.50;;;;;-146.67;50.63;74851.31;5107810;27;62260;-74
2023/12/10 09:52:08;;;;;;;;;7.00;3.00;;;;;-146.67;51.13;74843.31;5114083;27;61886;-76
2023/12/10 09:54:37;;;;;;;;;3.00;1.75;;;;;-146.67;51.35;74839.31;5103004;27;61999;-75
2023/12/10 09:57:02;;;;;;;;;3.00;3.00;;;;;-146.67;51.10;74831.34;5108939;27;62003;-75
2023/12/10 09:59:28;;;;;;;;;5.50;1.75;;;;;-146.67;51.05;74825.34;5113810;27;62275;-74
2023/12/10 10:01:54;;;;;;;;;9.25;2.75;;;;;-146.67;51.03;74809.38;5112651;27;61954;-74
2023/12/10 10:04:19;;;;;;;;;6.00;2.00;;;;;-146.67;50.82;74799.38;5110745;27;61875;-74
2023/12/10 10:06:45;;;;;;;;;9.50;1.00;;;;;-146.67;50.43;74809.38;5105986;27;61998;-75
2023/12/10 10:09:11;;;;;;;;;6.00;3.00;;;;;-146.67;50.56;74795.41;5112621;27;61977;-75
2023/12/10 10:11:50;;;;;;;;;14.00;5.50;;;;;-146.67;50.59;74797.38;5113269;27;61881;-74
2023/12/10 10:14:17;;;;;;;;;3.75;3.00;;;;;-146.67;50.41;74799.38;5095941;27;61883;-74
2023/12/10 10:16:49;;;;;;;;;6.00;3.00;;;;;-146.67;50.34;74795.41;5095306;27;61882;-74
2023/12/10 10:19:15;;;;;;;;;3.00;2.00;;;;;-146.67;50.70;74795.41;5097341;27;61937;-74
2023/12/10 10:21:42;;;;;;;;;10.75;2.00;;;;;-146.67;50.12;74795.41;5096809;27;61790;-75
2023/12/10 10:24:08;;;;;;;;;8.25;3.00;;;;;-146.67;50.04;74773.44;5101561;27;61868;-76
2023/12/10 10:26:35;;;;;;;;;4.25;1.25;;;;;-146.67;49.41;74779.41;5101232;27;61982;-76
2023/12/10 10:29:03;;;;;;;;;6.50;3.00;;;;;-146.67;49.45;74793.41;5102507;27;61985;-74
2023/12/10 10:31:29;;;;;;;;;3.25;2.50;;;;;-146.67;48.89;74813.38;5101114;27;61911;-74
2023/12/10 10:33:57;;;;;;;;;2.25;2.00;;;;;-146.67;48.66;74777.44;5098984;27;62133;-74
2023/12/10 10:36:24;;;;;;;;;8.50;1.00;;;;;-146.67;49.36;74765.44;5093302;27;61824;-75
2023/12/10 10:38:51;;;;;;;;;4.50;3.00;;;;;-146.67;49.05;74741.50;5103036;27;61994;-74
2023/12/10 10:41:21;;;;;;;;;3.25;1.50;;;;;-146.67;49.18;74727.50;5110372;27;61900;-73
2023/12/10 10:43:46;;;;;;;;;5.50;2.00;;;;;-146.67;48.95;74695.56;5109537;27;61957;-74
2023/12/10 10:46:12;;;;;;;;;2.50;1.25;;;;;-146.67;48.11;74687.56;5090241;27;61974;-75
2023/12/10 10:48:40;;;;;;;;;2.25;0.50;;;;;-146.67;48.07;74663.63;5103478;27;61853;-75
2023/12/10 10:51:07;;;;;;;;;4.00;2.25;;;;;-146.67;47.12;74659.63;5101338;27;62197;-75
2023/12/10 10:53:38;;;;;;;;;3.00;1.00;;;;;-146.67;47.66;74639.66;5107610;27;61898;-74
2023/12/10 10:56:05;;;;;;;;;7.00;2.00;;;;;-146.67;47.34;74631.69;5107818;27;62208;-74
2023/12/10 10:58:31;;;;;;;;;4.00;3.00;;;;;-146.67;46.27;74629.69;5118855;27;62086;-75
2023/12/10 11:00:57;;;;;;;;;5.00;1.75;;;;;-146.67;46.79;74613.72;5112787;27;61951;-75
2023/12/10 11:03:26;;;;;;;;;8.00;1.00;;;;;-146.67;46.44;74605.72;5109907;27;63799;-75
2023/12/10 11:05:56;;;;;;;;;4.00;1.50;;;;;-146.67;46.44;74601.72;5095800;27;61951;-75
2023/12/10 11:08:23;;;;;;;;;5.25;1.75;;;;;-146.67;46.21;74593.75;5092234;27;62080;-75
2023/12/10 11:10:58;;;;;;;;;3.75;2.00;;;;;-146.67;45.51;74587.75;5116534;27;62005;-75